createdAt,value
2018-12-07T00:01:43.702Z,23.33
2018-12-07T00:04:19.845Z,24.27
2018-12-07T00:06:51.857Z,24.50
2018-12-07T00:09:24.120Z,25.43
2018-12-07T00:12:00.113Z,24.07
2018-12-07T00:14:32.188Z,23.87
2018-12-07T00:17:08.351Z,22.07
2018-12-07T00:19:47.957Z,23.07
2018-12-07T00:22:18.641Z,22.27
2018-12-07T00:24:55.692Z,22.40
2018-12-07T00:27:27.768Z,22.40
2018-12-07T00:29:59.830Z,22.60
2018-12-07T00:32:35.956Z,23.40
2018-12-07T00:35:06.358Z,23.80
2018-12-07T00:37:39.291Z,24.03
2018-12-07T00:40:10.143Z,24.43
2018-12-07T00:42:42.471Z,24.73
2018-12-07T00:45:12.879Z,24.57
2018-12-07T00:47:45.042Z,24.10
2018-12-07T00:50:15.167Z,23.83
2018-12-07T00:52:51.584Z,23.97
2018-12-07T00:55:39.340Z,23.00
2018-12-07T00:58:16.064Z,23.87
2018-12-07T01:00:48.141Z,23.00
2018-12-07T01:03:24.432Z,23.53
2018-12-07T01:05:56.511Z,22.23
2018-12-07T01:08:29.492Z,23.73
2018-12-07T01:11:05.713Z,23.17
2018-12-07T01:13:37.839Z,22.57
2018-12-07T01:16:10.668Z,24.50
2018-12-07T01:18:47.678Z,24.40
2018-12-07T01:21:19.793Z,24.07
2018-12-07T01:23:52.709Z,22.53
2018-12-07T01:26:25.157Z,24.50
2018-12-07T01:28:55.507Z,24.00
2018-12-07T01:31:31.502Z,23.73
2018-12-07T01:34:04.113Z,24.97
2018-12-07T01:36:40.377Z,26.27
2018-12-07T01:39:13.417Z,24.30
2018-12-07T01:41:45.477Z,24.50
2018-12-07T01:44:22.615Z,23.00
2018-12-07T01:46:55.665Z,25.63
2018-12-07T01:49:31.970Z,26.17
2018-12-07T01:52:08.072Z,26.17
2018-12-07T01:54:44.288Z,25.90
2018-12-07T01:57:20.510Z,26.97
2018-12-07T01:59:53.417Z,27.37
2018-12-07T02:02:24.816Z,27.03
2018-12-07T02:04:57.181Z,25.77
2018-12-07T02:07:34.792Z,25.70
2018-12-07T02:10:08.147Z,26.87
2018-12-07T02:12:40.599Z,27.53
2018-12-07T02:15:16.892Z,30.47
2018-12-07T02:17:48.877Z,30.17
2018-12-07T02:20:21.853Z,31.60
2018-12-07T02:22:54.312Z,29.13
2018-12-07T02:25:24.412Z,25.67
2018-12-07T02:28:00.511Z,27.77
2018-12-07T02:30:32.724Z,28.70
2018-12-07T02:33:08.975Z,27.93
2018-12-07T02:35:45.042Z,28.63
2018-12-07T02:38:22.343Z,30.00
2018-12-07T02:40:58.575Z,28.37
2018-12-07T02:43:30.628Z,27.97
2018-12-07T02:46:01.047Z,28.40
2018-12-07T02:48:33.820Z,30.27
2018-12-07T02:51:06.149Z,29.93
2018-12-07T02:53:39.087Z,28.13
2018-12-07T02:56:11.155Z,27.00
2018-12-07T02:58:41.419Z,27.40
2018-12-07T03:01:18.491Z,29.73
2018-12-07T03:03:55.626Z,28.47
2018-12-07T03:06:35.909Z,29.57
2018-12-07T03:09:08.876Z,33.43
2018-12-07T03:11:46.090Z,34.00
2018-12-07T03:14:22.307Z,34.47
2018-12-07T03:16:59.182Z,34.33
2018-12-07T03:19:35.483Z,35.30
2018-12-07T03:22:07.515Z,34.43
2018-12-07T03:24:43.978Z,36.67
2018-12-07T03:27:16.319Z,34.47
2018-12-07T03:29:49.299Z,33.73
2018-12-07T03:32:21.855Z,34.70
2018-12-07T03:34:51.946Z,35.23
2018-12-07T03:37:28.879Z,32.33
2018-12-07T03:40:01.191Z,34.00
2018-12-07T03:42:38.380Z,32.00
2018-12-07T03:45:07.909Z,33.10
2018-12-07T03:47:38.687Z,33.50
2018-12-07T03:50:10.768Z,33.10
2018-12-07T03:52:43.133Z,34.60
2018-12-07T03:55:14.037Z,34.77
2018-12-07T03:57:46.473Z,32.67
2018-12-07T04:00:18.837Z,35.10
2018-12-07T04:02:55.235Z,34.43
2018-12-07T04:05:27.306Z,31.77
2018-12-07T04:08:00.244Z,33.00
2018-12-07T04:10:33.292Z,31.53
2018-12-07T04:13:09.336Z,32.17
2018-12-07T04:15:39.670Z,31.00
2018-12-07T04:18:15.692Z,33.10
2018-12-07T04:20:49.700Z,31.93
2018-12-07T04:23:25.773Z,30.70
2018-12-07T04:26:01.961Z,30.47
2018-12-07T04:28:40.505Z,32.40
2018-12-07T04:31:12.707Z,31.63
2018-12-07T04:33:49.047Z,31.03
2018-12-07T04:36:25.134Z,30.47
2018-12-07T04:38:55.336Z,31.73
2018-12-07T04:41:27.426Z,32.03
2018-12-07T04:43:58.044Z,31.57
2018-12-07T04:46:31.963Z,31.53
2018-12-07T04:49:08.176Z,31.83
2018-12-07T04:51:40.910Z,29.10
2018-12-07T04:54:13.129Z,32.63
2018-12-07T04:56:43.743Z,31.77
2018-12-07T04:59:16.679Z,31.23
2018-12-07T05:01:49.188Z,32.10
2018-12-07T05:04:21.377Z,29.63
2018-12-07T05:06:53.660Z,32.50
2018-12-07T05:09:25.924Z,29.33
2018-12-07T05:11:58.605Z,32.33
2018-12-07T05:14:37.614Z,33.37
2018-12-07T05:17:07.125Z,30.13
2018-12-07T05:19:39.914Z,30.40
2018-12-07T05:22:16.975Z,28.63
2018-12-07T05:24:49.023Z,28.47
2018-12-07T05:27:25.300Z,31.17
2018-12-07T05:29:58.140Z,32.97
2018-12-07T05:32:30.430Z,32.97
2018-12-07T05:35:02.573Z,33.43
2018-12-07T05:42:42.839Z,31.53
2018-12-07T05:45:13.350Z,32.77
2018-12-07T06:10:19.596Z,29.03
2018-12-07T06:12:53.632Z,29.43
2018-12-07T06:15:30.439Z,28.87
2018-12-07T06:18:07.000Z,30.00
2018-12-07T06:20:37.824Z,29.63
2018-12-07T06:23:09.875Z,30.33
2018-12-07T06:25:46.983Z,29.80
2018-12-07T06:28:17.078Z,29.63
2018-12-07T06:30:49.487Z,31.47
2018-12-07T06:33:21.532Z,31.43
2018-12-07T06:35:54.419Z,30.47
2018-12-07T06:38:26.624Z,31.40
2018-12-07T06:40:58.796Z,30.00
2018-12-07T06:43:30.988Z,31.03
2018-12-07T06:46:03.058Z,30.90
2018-12-07T06:48:38.939Z,31.50
2018-12-07T06:51:10.910Z,32.13
2018-12-07T06:53:42.873Z,34.00
2018-12-07T06:56:12.971Z,32.80
2018-12-07T06:58:43.792Z,34.83
2018-12-07T07:01:19.902Z,33.47
2018-12-07T07:03:56.228Z,33.50
2018-12-07T07:06:29.073Z,33.20
2018-12-07T07:09:01.438Z,32.70
2018-12-07T07:11:35.826Z,34.33
2018-12-07T07:14:12.263Z,34.07
2018-12-07T07:16:44.738Z,34.50
2018-12-07T07:19:17.853Z,34.57
2018-12-07T07:21:49.930Z,33.10
2018-12-07T07:24:22.473Z,32.43
2018-12-07T07:26:51.895Z,33.17
2018-12-07T07:29:22.594Z,33.63
2018-12-07T07:31:54.901Z,35.07
2018-12-07T07:34:27.042Z,33.03
2018-12-07T07:36:59.938Z,32.43
2018-12-07T07:39:32.428Z,32.33
2018-12-07T07:42:04.675Z,29.27
2018-12-07T07:44:34.509Z,28.20
2018-12-07T07:47:06.648Z,29.43
2018-12-07T07:49:38.537Z,29.90
2018-12-07T07:52:15.447Z,28.47
2018-12-07T07:54:47.690Z,29.27
2018-12-07T07:57:19.926Z,27.00
2018-12-07T07:59:49.906Z,27.17
2018-12-07T08:02:22.676Z,26.77
2018-12-07T08:04:54.635Z,26.93
2018-12-07T08:07:26.879Z,27.10
2018-12-07T08:09:58.734Z,26.70
2018-12-07T08:12:31.398Z,23.97
2018-12-07T08:27:36.422Z,27.77
2018-12-07T08:30:09.900Z,27.67
2018-12-07T08:32:42.804Z,27.87
2018-12-07T08:35:13.629Z,28.37
2018-12-07T08:37:50.182Z,29.47
2018-12-07T08:40:22.324Z,27.77
2018-12-07T08:42:53.269Z,28.70
2018-12-07T08:45:25.489Z,32.10
2018-12-07T08:48:02.112Z,28.87
2018-12-07T08:50:32.811Z,29.70
2018-12-07T08:53:05.696Z,29.07
2018-12-07T08:55:36.047Z,29.13
2018-12-07T08:58:06.261Z,28.43
2018-12-07T09:00:42.472Z,27.33
2018-12-07T09:03:14.505Z,26.80
2018-12-07T09:05:46.811Z,27.53
2018-12-07T09:08:22.988Z,27.10
2018-12-07T09:10:59.772Z,28.17
2018-12-07T09:13:30.408Z,27.17
2018-12-07T09:16:02.523Z,27.20
2018-12-07T09:18:32.799Z,25.70
2018-12-07T09:21:04.986Z,25.47
2018-12-07T09:23:41.212Z,24.17
2018-12-07T09:26:13.302Z,24.27
2018-12-07T09:28:46.301Z,27.57
2018-12-07T09:31:18.419Z,31.13
2018-12-07T09:33:54.504Z,29.33
2018-12-07T09:36:30.734Z,26.53
2018-12-07T09:39:07.057Z,26.63
2018-12-07T09:41:40.868Z,29.07
2018-12-07T09:44:13.073Z,29.20
2018-12-07T09:46:43.357Z,30.80
2018-12-07T09:49:16.249Z,29.83
2018-12-07T09:51:49.077Z,30.27
2018-12-07T09:54:21.337Z,30.23
2018-12-07T09:56:58.225Z,29.10
2018-12-07T09:59:34.489Z,30.53
2018-12-07T10:02:06.980Z,29.97
2018-12-07T10:04:39.244Z,30.87
2018-12-07T10:07:09.419Z,27.00
2018-12-07T10:09:41.468Z,26.63
2018-12-07T10:12:17.714Z,29.00
2018-12-07T10:14:49.898Z,29.07
2018-12-07T10:17:25.957Z,30.50
2018-12-07T10:19:58.147Z,30.40
2018-12-07T10:22:30.409Z,28.53
2018-12-07T10:25:02.784Z,25.43
2018-12-07T10:27:35.802Z,25.60
2018-12-07T10:45:19.340Z,18.77
2018-12-07T10:47:52.087Z,19.00
2018-12-07T10:50:28.468Z,18.77
2018-12-07T10:53:00.880Z,19.53
2018-12-07T10:55:31.823Z,19.50
2018-12-07T10:58:03.925Z,19.30
2018-12-07T11:00:45.503Z,18.23
2018-12-07T11:03:23.725Z,18.33
2018-12-07T11:06:02.134Z,21.03
2018-12-07T11:08:40.267Z,18.30
2018-12-07T11:11:17.950Z,19.53
2018-12-07T11:13:56.124Z,19.77
2018-12-07T11:16:34.086Z,19.93
2018-12-07T11:19:10.521Z,20.67
2018-12-07T11:21:52.823Z,20.23
2018-12-07T11:24:30.591Z,18.70
2018-12-07T11:27:13.569Z,16.93
2018-12-07T11:29:55.245Z,17.47
2018-12-07T11:32:34.658Z,16.13
2018-12-07T11:35:09.364Z,17.43
2018-12-07T11:37:43.028Z,16.43
2018-12-07T11:40:15.920Z,15.57
2018-12-07T11:42:51.028Z,15.53
2018-12-07T12:00:25.057Z,17.20
2018-12-07T12:02:57.316Z,16.80
2018-12-07T12:05:29.361Z,17.93
2018-12-07T12:08:01.689Z,16.77
2018-12-07T12:10:34.720Z,16.10
2018-12-07T12:13:10.792Z,16.30
2018-12-07T12:15:43.672Z,15.97
2018-12-07T12:18:16.657Z,15.60
2018-12-07T12:20:52.951Z,16.63
2018-12-07T12:23:25.391Z,15.97
2018-12-07T12:25:58.916Z,16.53
2018-12-07T12:28:35.072Z,17.60
2018-12-07T12:31:07.241Z,17.63
2018-12-07T12:33:39.486Z,16.37
2018-12-07T12:36:17.134Z,16.10
2018-12-07T12:38:49.800Z,15.30
2018-12-07T12:41:25.828Z,13.50
2018-12-07T12:43:55.856Z,10.07
2018-12-07T12:46:33.221Z,10.80
2018-12-07T12:49:05.631Z,11.13
2018-12-07T12:51:38.293Z,12.30
2018-12-07T12:54:10.929Z,10.50
2018-12-07T12:56:42.968Z,11.10
2018-12-07T13:01:46.197Z,10.70
2018-12-07T13:04:17.141Z,9.47
2018-12-07T13:06:49.517Z,9.43
2018-12-07T13:09:21.651Z,9.03
2018-12-07T13:11:57.871Z,9.13
2018-12-07T13:14:30.776Z,8.70
2018-12-07T13:17:07.019Z,9.10
2018-12-07T13:19:43.414Z,7.97
2018-12-07T13:22:13.627Z,9.90
2018-12-07T13:24:45.852Z,6.40
2018-12-07T13:27:18.306Z,6.80
2018-12-07T13:29:54.652Z,7.23
2018-12-07T13:32:26.705Z,7.70
2018-12-07T13:34:59.024Z,8.87
2018-12-07T13:37:31.177Z,9.07
2018-12-07T13:40:01.556Z,8.63
2018-12-07T13:42:34.566Z,8.23
2018-12-07T13:45:08.436Z,8.07
2018-12-07T13:47:41.416Z,9.53
2018-12-07T13:50:19.119Z,10.00
2018-12-07T13:52:51.822Z,10.17
2018-12-07T13:55:24.224Z,8.93
2018-12-07T13:58:02.436Z,9.97
2018-12-07T14:00:38.536Z,10.33
2018-12-07T14:03:10.672Z,9.90
2018-12-07T14:05:41.119Z,9.40
2018-12-07T14:08:11.503Z,9.80
2018-12-07T14:10:48.384Z,10.53
2018-12-07T14:13:19.591Z,10.63
2018-12-07T14:15:57.323Z,9.90
2018-12-07T14:18:28.445Z,11.10
2018-12-07T14:21:04.770Z,10.57
2018-12-07T14:23:35.931Z,10.93
2018-12-07T14:26:08.487Z,11.57
2018-12-07T14:28:41.394Z,13.73
2018-12-07T14:31:13.786Z,12.93
2018-12-07T14:33:46.076Z,12.97
2018-12-07T14:36:18.240Z,12.97
2018-12-07T14:38:50.489Z,14.50
2018-12-07T14:41:23.604Z,13.93
2018-12-07T14:43:59.988Z,14.03
2018-12-07T14:46:31.132Z,15.13
2018-12-07T14:49:02.130Z,13.63
2018-12-07T14:51:35.332Z,11.47
2018-12-07T14:54:08.321Z,9.67
2018-12-07T14:56:41.433Z,9.63
2018-12-07T14:59:17.669Z,10.03
2018-12-07T15:01:50.078Z,10.10
2018-12-07T15:04:22.681Z,16.03
2018-12-07T15:06:59.010Z,14.07
2018-12-07T15:09:32.119Z,12.90
2018-12-07T15:12:08.444Z,15.20
2018-12-07T15:14:44.727Z,14.53
2018-12-07T15:17:15.730Z,16.10
2018-12-07T15:19:48.164Z,14.50
2018-12-07T15:22:25.182Z,13.50
2018-12-07T15:24:59.440Z,12.90
2018-12-07T15:27:30.105Z,13.03
2018-12-07T15:30:02.435Z,13.23
2018-12-07T15:32:34.761Z,13.47
2018-12-07T15:35:08.678Z,12.30
2018-12-07T15:37:41.556Z,12.83
2018-12-07T15:40:14.515Z,12.83
2018-12-07T15:42:51.279Z,12.97
2018-12-07T15:45:28.685Z,13.83
2018-12-07T15:48:01.565Z,13.20
2018-12-07T15:50:33.784Z,12.93
2018-12-07T15:53:06.255Z,13.53
2018-12-07T15:55:39.073Z,15.03
2018-12-07T15:58:12.697Z,14.00
2018-12-07T16:00:45.512Z,16.03
2018-12-07T16:03:22.736Z,17.03
2018-12-07T16:05:55.087Z,17.07
2018-12-07T16:08:31.402Z,16.87
2018-12-07T16:11:03.554Z,16.27
2018-12-07T16:13:36.566Z,15.07
2018-12-07T16:16:07.384Z,17.77
2018-12-07T16:18:43.844Z,17.37
2018-12-07T16:21:16.641Z,15.93
2018-12-07T16:23:48.819Z,15.93
2018-12-07T16:26:20.996Z,16.13
2018-12-07T16:28:53.135Z,16.60
2018-12-07T16:31:25.215Z,17.10
2018-12-07T16:33:58.458Z,18.93
2018-12-07T16:36:31.718Z,19.47
2018-12-07T16:39:02.396Z,18.33
2018-12-07T16:41:34.613Z,16.23
2018-12-07T16:44:07.628Z,19.03
2018-12-07T16:46:39.785Z,20.63
2018-12-07T16:49:13.031Z,18.93
2018-12-07T16:51:46.040Z,19.77
2018-12-07T16:54:18.362Z,20.17
2018-12-07T16:56:54.637Z,21.77
2018-12-07T16:59:25.734Z,19.97
2018-12-07T17:02:03.053Z,19.10
2018-12-07T17:04:40.246Z,18.90
2018-12-07T17:07:13.265Z,17.83
2018-12-07T17:09:49.409Z,17.20
2018-12-07T17:12:25.727Z,17.23
2018-12-07T17:14:59.009Z,16.07
2018-12-07T17:17:32.210Z,16.50
2018-12-07T17:20:03.405Z,18.60
2018-12-07T17:22:36.318Z,16.80
2018-12-07T17:25:10.244Z,16.53
2018-12-07T17:27:43.306Z,15.10
2018-12-07T17:30:16.343Z,14.97
2018-12-07T17:32:49.491Z,14.83
2018-12-07T17:35:26.225Z,14.53
2018-12-07T17:37:57.219Z,15.57
2018-12-07T17:40:29.773Z,14.43
2018-12-07T17:43:02.640Z,15.17
2018-12-07T17:45:34.779Z,14.10
2018-12-07T17:48:10.972Z,16.97
2018-12-07T17:50:44.065Z,16.60
2018-12-07T17:53:16.386Z,17.20
2018-12-07T17:55:47.386Z,16.33
2018-12-07T17:58:20.133Z,18.10
2018-12-07T18:00:53.017Z,15.63
2018-12-07T18:03:25.115Z,15.73
2018-12-07T18:06:03.759Z,17.33
2018-12-07T18:08:37.531Z,16.43
2018-12-07T18:11:11.988Z,17.00
2018-12-07T18:13:45.110Z,16.77
2018-12-07T18:16:22.282Z,17.30
2018-12-07T18:18:57.240Z,16.17
2018-12-07T18:21:29.642Z,18.17
2018-12-07T18:24:07.737Z,20.23
2018-12-07T18:26:41.903Z,19.90
2018-12-07T18:29:15.893Z,20.87
2018-12-07T18:31:48.395Z,29.63
2018-12-07T18:34:21.325Z,34.63
2018-12-07T18:36:54.577Z,34.27
2018-12-07T18:39:27.712Z,25.50
2018-12-07T18:42:00.975Z,27.17
2018-12-07T18:44:34.078Z,26.97
2018-12-07T18:47:10.199Z,26.63
2018-12-07T18:49:40.490Z,25.50
2018-12-07T18:52:13.221Z,25.13
2018-12-07T18:54:49.657Z,24.10
2018-12-07T18:57:22.659Z,23.50
2018-12-07T18:59:56.021Z,22.63
2018-12-07T19:02:28.924Z,22.03
2018-12-07T19:05:01.703Z,22.67
2018-12-07T19:07:38.385Z,21.13
2018-12-07T19:10:11.778Z,21.83
2018-12-07T19:12:45.700Z,22.37
2018-12-07T19:15:22.139Z,20.17
2018-12-07T19:17:53.164Z,21.17
2018-12-07T19:20:26.031Z,21.53
2018-12-07T19:22:59.002Z,20.90
2018-12-07T19:25:32.019Z,22.23
2018-12-07T19:28:09.264Z,21.73
2018-12-07T19:30:42.046Z,21.93
2018-12-07T19:33:15.424Z,19.97
2018-12-07T19:35:48.313Z,22.33
2018-12-07T19:38:21.046Z,19.97
2018-12-07T19:40:51.983Z,22.57
2018-12-07T19:43:25.209Z,21.27
2018-12-07T19:45:57.449Z,22.60
2018-12-07T19:48:28.415Z,20.50
2018-12-07T19:51:05.294Z,21.53
2018-12-07T19:53:37.845Z,21.40
2018-12-07T19:56:13.968Z,23.93
2018-12-07T19:58:47.294Z,23.40
2018-12-07T20:01:20.285Z,22.93
2018-12-07T20:03:50.789Z,27.33
2018-12-07T20:06:23.791Z,29.20
2018-12-07T20:13:59.063Z,34.93
2018-12-07T20:16:31.173Z,32.97
2018-12-07T20:19:07.395Z,32.17
2018-12-07T20:21:43.653Z,28.97
2018-12-07T20:24:16.090Z,29.13
2018-12-07T20:26:48.592Z,27.43
2018-12-07T20:29:21.566Z,27.13
2018-12-07T20:31:54.911Z,29.87
2018-12-07T20:34:27.830Z,29.07
2018-12-07T20:37:00.586Z,28.93
2018-12-07T20:39:31.650Z,30.47
2018-12-07T20:42:04.703Z,27.97
2018-12-07T20:44:37.078Z,29.13
2018-12-07T20:47:10.331Z,26.27
2018-12-07T20:49:43.310Z,27.67
2018-12-07T20:52:15.548Z,26.30
2018-12-07T20:54:48.882Z,27.47
2018-12-07T20:57:21.941Z,29.20
2018-12-07T20:59:56.053Z,26.23
2018-12-07T21:02:29.010Z,27.60
2018-12-07T21:05:32.307Z,25.77
2018-12-07T21:11:38.718Z,26.37
2018-12-07T21:14:34.216Z,26.23
2018-12-07T21:17:30.259Z,26.17
2018-12-07T21:20:27.217Z,28.17
2018-12-07T21:23:00.288Z,28.80
2018-12-07T21:25:30.729Z,27.30
2018-12-07T21:28:03.689Z,26.83
2018-12-07T21:31:01.358Z,26.30
2018-12-07T21:35:23.598Z,26.43
2018-12-07T21:37:59.789Z,26.67
2018-12-07T21:40:32.822Z,26.53
2018-12-07T21:43:05.564Z,26.53
2018-12-07T21:45:36.730Z,25.00
2018-12-07T21:48:28.948Z,23.87
2018-12-07T21:51:43.466Z,23.93
2018-12-07T21:54:16.567Z,24.03
2018-12-07T21:56:49.554Z,22.70
2018-12-07T21:59:22.802Z,25.60
2018-12-07T22:01:59.610Z,23.60
2018-12-07T22:04:32.877Z,23.13
2018-12-07T22:07:06.061Z,21.87
2018-12-07T22:09:38.871Z,21.83
2018-12-07T22:12:15.171Z,23.30
2018-12-07T22:14:53.443Z,22.70
2018-12-07T22:17:26.350Z,23.10
2018-12-07T22:19:58.588Z,23.30
2018-12-07T22:22:29.659Z,25.13
2018-12-07T22:25:02.123Z,21.10
2018-12-07T22:27:34.458Z,22.77
2018-12-07T22:30:11.154Z,22.07
2018-12-07T22:32:43.907Z,21.07
2018-12-07T22:35:16.300Z,24.13
2018-12-07T22:37:49.498Z,28.87
2018-12-07T22:40:25.815Z,28.23
2018-12-07T22:42:57.973Z,27.27
2018-12-07T22:45:31.531Z,29.57
2018-12-07T22:48:04.208Z,29.57
2018-12-07T22:50:41.180Z,27.07
2018-12-07T22:53:13.722Z,26.10
2018-12-07T22:55:46.292Z,25.90
2018-12-07T22:58:18.391Z,25.87
2018-12-07T23:00:51.242Z,26.50
2018-12-07T23:03:22.000Z,24.77
2018-12-07T23:05:54.185Z,24.03
2018-12-07T23:08:27.119Z,27.77
2018-12-07T23:10:59.613Z,24.07
2018-12-07T23:13:35.856Z,25.10
2018-12-07T23:23:34.425Z,26.47
2018-12-07T23:26:06.601Z,24.90
2018-12-07T23:28:40.432Z,25.87
2018-12-07T23:31:10.765Z,23.30
2018-12-07T23:33:42.952Z,24.70
2018-12-07T23:36:15.835Z,22.23
2018-12-07T23:38:48.210Z,23.90
2018-12-07T23:41:24.569Z,24.57
2018-12-07T23:44:00.681Z,24.77
2018-12-07T23:46:32.910Z,24.87
2018-12-07T23:49:05.323Z,25.70
2018-12-07T23:51:41.510Z,25.43
2018-12-07T23:54:13.592Z,24.27
2018-12-07T23:56:45.702Z,25.10
2018-12-07T23:59:17.986Z,24.07
